createdAt,value
2022-10-01T00:01:18.908Z,9.00
2022-10-01T00:03:46.407Z,9.93
2022-10-01T00:06:16.705Z,8.85
2022-10-01T00:08:44.669Z,8.85
2022-10-01T00:11:23.544Z,8.48
2022-10-01T00:13:50.801Z,8.45
2022-10-01T00:16:25.995Z,9.33
2022-10-01T00:18:53.118Z,8.20
2022-10-01T00:21:21.979Z,9.00
2022-10-01T00:23:54.295Z,8.82
2022-10-01T00:26:23.959Z,8.95
2022-10-01T00:28:55.313Z,9.67
2022-10-01T00:31:22.292Z,10.00
2022-10-01T00:33:48.721Z,11.75
2022-10-01T00:36:15.128Z,10.85
2022-10-01T00:38:41.502Z,10.27
2022-10-01T00:41:09.329Z,10.60
2022-10-01T00:43:42.293Z,11.23
2022-10-01T00:46:22.106Z,10.32
2022-10-01T00:49:00.101Z,8.95
2022-10-01T00:51:33.070Z,7.53
2022-10-01T00:54:14.682Z,8.20
2022-10-01T00:56:42.726Z,8.20
2022-10-01T00:59:11.047Z,8.20
2022-10-01T01:01:38.155Z,8.20
2022-10-01T01:04:07.797Z,9.40
2022-10-01T01:06:34.210Z,9.10
2022-10-01T01:09:00.631Z,8.45
2022-10-01T01:11:32.704Z,8.10
2022-10-01T01:14:18.381Z,7.50
2022-10-01T01:16:54.188Z,7.32
2022-10-01T01:19:38.272Z,7.70
2022-10-01T01:22:07.471Z,8.48
2022-10-01T01:24:55.445Z,8.15
2022-10-01T01:27:49.756Z,6.32
2022-10-01T01:30:18.178Z,7.32
2022-10-01T01:33:01.511Z,6.47
2022-10-01T01:35:33.045Z,7.53
2022-10-01T01:38:04.228Z,6.32
2022-10-01T01:40:33.661Z,6.28
2022-10-01T01:43:03.145Z,7.05
2022-10-01T01:45:30.797Z,6.97
2022-10-01T01:48:00.376Z,7.35
2022-10-01T01:50:30.030Z,7.53
2022-10-01T01:52:56.446Z,6.55
2022-10-01T01:55:24.912Z,7.60
2022-10-01T01:57:51.856Z,7.20
2022-10-01T02:00:18.239Z,6.78
2022-10-01T02:02:51.989Z,7.07
2022-10-01T02:05:23.299Z,7.03
2022-10-01T02:08:19.836Z,6.30
2022-10-01T02:10:59.754Z,6.27
2022-10-01T02:13:47.649Z,7.18
2022-10-01T02:16:24.220Z,7.75
2022-10-01T02:19:17.834Z,6.78
2022-10-01T02:22:02.913Z,7.25
2022-10-01T02:24:35.069Z,7.20
2022-10-01T02:27:07.402Z,6.97
2022-10-01T02:29:35.904Z,7.28
2022-10-01T02:32:02.453Z,7.65
2022-10-01T02:34:30.814Z,7.53
2022-10-01T02:37:01.222Z,7.20
2022-10-01T02:39:30.284Z,7.50
2022-10-01T02:42:00.125Z,6.70
2022-10-01T02:44:31.794Z,7.07
2022-10-01T02:47:06.942Z,6.15
2022-10-01T02:49:35.216Z,6.20
2022-10-01T02:52:09.740Z,6.50
2022-10-01T02:54:45.284Z,6.20
2022-10-01T02:57:15.129Z,6.85
2022-10-01T02:59:41.525Z,6.55
2022-10-01T03:02:08.143Z,6.33
2022-10-01T03:04:34.617Z,6.28
2022-10-01T03:07:01.023Z,6.28
2022-10-01T03:09:27.432Z,6.78
2022-10-01T03:11:53.804Z,6.40
2022-10-01T03:14:20.220Z,6.67
2022-10-01T03:16:46.595Z,6.30
2022-10-01T03:19:12.971Z,6.50
2022-10-01T03:21:39.384Z,6.88
2022-10-01T03:24:05.933Z,6.97
2022-10-01T03:26:32.317Z,6.43
2022-10-01T03:28:58.759Z,6.30
2022-10-01T03:31:25.248Z,6.60
2022-10-01T03:33:51.683Z,6.13
2022-10-01T03:36:18.047Z,6.60
2022-10-01T03:38:44.454Z,6.27
2022-10-01T03:41:11.052Z,5.70
2022-10-01T03:43:37.431Z,5.28
2022-10-01T03:46:03.863Z,4.90
2022-10-01T03:48:30.445Z,5.28
2022-10-01T03:50:59.251Z,5.50
2022-10-01T03:53:27.525Z,5.65
2022-10-01T03:55:54.926Z,5.43
2022-10-01T03:58:21.336Z,5.30
2022-10-01T04:00:47.938Z,5.10
2022-10-01T04:03:15.402Z,5.23
2022-10-01T04:05:43.168Z,5.10
2022-10-01T04:08:10.227Z,5.20
2022-10-01T04:10:36.686Z,5.22
2022-10-01T04:13:04.423Z,5.70
2022-10-01T04:15:31.253Z,5.40
2022-10-01T04:17:57.634Z,6.07
2022-10-01T04:20:24.365Z,6.35
2022-10-01T04:22:50.866Z,6.18
2022-10-01T04:25:17.572Z,6.10
2022-10-01T04:28:04.527Z,6.17
2022-10-01T04:30:33.606Z,7.30
2022-10-01T04:33:00.128Z,7.95
2022-10-01T04:35:26.985Z,8.57
2022-10-01T04:38:05.749Z,9.60
2022-10-01T04:40:34.462Z,8.53
2022-10-01T04:43:02.052Z,9.00
2022-10-01T04:45:28.691Z,9.60
2022-10-01T04:47:56.418Z,10.02
2022-10-01T04:50:25.254Z,10.68
2022-10-01T04:52:52.516Z,10.40
2022-10-01T04:55:20.680Z,11.30
2022-10-01T04:57:47.832Z,11.63
2022-10-01T05:00:19.862Z,11.80
2022-10-01T05:02:46.741Z,11.43
2022-10-01T05:05:13.593Z,11.27
2022-10-01T05:07:40.211Z,11.48
2022-10-01T05:10:10.043Z,11.73
2022-10-01T05:12:36.416Z,10.48
2022-10-01T05:15:03.502Z,10.98
2022-10-01T05:17:29.958Z,10.57
2022-10-01T05:19:56.323Z,10.95
2022-10-01T05:22:22.748Z,10.60
2022-10-01T05:24:49.139Z,9.70
2022-10-01T05:27:15.612Z,11.13
2022-10-01T05:29:42.620Z,10.47
2022-10-01T05:32:09.858Z,10.88
2022-10-01T05:34:36.616Z,10.57
2022-10-01T05:37:03.046Z,10.95
2022-10-01T05:39:30.489Z,11.40
2022-10-01T05:41:57.516Z,10.90
2022-10-01T05:44:25.211Z,11.60
2022-10-01T05:46:53.055Z,11.18
2022-10-01T05:49:19.743Z,12.05
2022-10-01T05:51:46.358Z,12.25
2022-10-01T05:54:13.182Z,11.83
2022-10-01T05:56:39.878Z,11.13
2022-10-01T05:59:06.382Z,11.70
2022-10-01T06:01:32.919Z,11.40
2022-10-01T06:03:59.570Z,11.32
2022-10-01T06:06:27.253Z,11.67
2022-10-01T06:08:53.805Z,11.98
2022-10-01T06:11:20.774Z,11.65
2022-10-01T06:13:47.150Z,12.02
2022-10-01T06:16:14.766Z,11.23
2022-10-01T06:18:42.244Z,10.80
2022-10-01T06:21:09.830Z,10.63
2022-10-01T06:23:36.515Z,11.27
2022-10-01T06:26:05.206Z,10.18
2022-10-01T06:28:32.708Z,10.50
2022-10-01T06:31:02.674Z,10.00
2022-10-01T06:33:29.125Z,9.73
2022-10-01T06:35:55.699Z,9.73
2022-10-01T06:38:23.828Z,8.88
2022-10-01T06:41:03.396Z,9.00
2022-10-01T06:43:30.828Z,8.60
2022-10-01T06:46:00.631Z,8.60
2022-10-01T06:48:27.048Z,8.10
2022-10-01T06:50:55.339Z,8.52
2022-10-01T06:53:21.730Z,8.80
2022-10-01T06:55:48.182Z,9.07
2022-10-01T06:58:20.019Z,9.88
2022-10-01T07:00:47.150Z,11.48
2022-10-01T07:03:19.178Z,9.32
2022-10-01T07:05:46.109Z,9.82
2022-10-01T07:08:12.812Z,17.10
2022-10-01T07:10:39.605Z,13.85
2022-10-01T07:13:10.810Z,11.40
2022-10-01T07:15:37.589Z,17.80
2022-10-01T07:18:04.820Z,21.90
2022-10-01T07:20:31.257Z,9.53
2022-10-01T07:22:59.352Z,8.90
2022-10-01T07:25:27.826Z,7.05
2022-10-01T07:28:00.164Z,7.78
2022-10-01T07:30:27.422Z,7.35
2022-10-01T07:32:54.023Z,6.50
2022-10-01T07:35:20.837Z,6.60
2022-10-01T07:37:48.413Z,7.07
2022-10-01T07:40:15.362Z,6.60
2022-10-01T07:42:42.376Z,7.03
2022-10-01T07:45:09.519Z,6.90
2022-10-01T07:47:35.998Z,6.72
2022-10-01T07:50:02.868Z,6.80
2022-10-01T07:52:29.257Z,6.70
2022-10-01T07:54:55.623Z,5.70
2022-10-01T07:57:22.058Z,5.63
2022-10-01T07:59:51.245Z,4.60
2022-10-01T08:02:21.429Z,5.60
2022-10-01T08:04:47.869Z,3.60
2022-10-01T08:07:14.293Z,3.90
2022-10-01T08:09:40.680Z,3.60
2022-10-01T08:12:07.100Z,3.38
2022-10-01T08:14:33.494Z,3.00
2022-10-01T08:17:00.033Z,2.67
2022-10-01T08:19:26.595Z,2.95
2022-10-01T08:21:52.997Z,2.60
2022-10-01T08:24:19.581Z,3.20
2022-10-01T08:26:51.417Z,2.47
2022-10-01T08:29:17.847Z,2.72
2022-10-01T08:31:44.292Z,2.72
2022-10-01T08:34:10.790Z,2.60
2022-10-01T08:36:37.265Z,2.67
2022-10-01T08:39:03.708Z,3.83
2022-10-01T08:41:51.682Z,5.65
2022-10-01T08:44:23.079Z,8.20
2022-10-01T08:46:51.152Z,8.13
2022-10-01T08:49:41.184Z,10.60
2022-10-01T08:52:24.711Z,9.20
2022-10-01T08:55:00.442Z,7.10
2022-10-01T08:57:33.053Z,4.80
2022-10-01T09:00:02.700Z,9.93
2022-10-01T09:02:33.193Z,3.88
2022-10-01T09:05:03.232Z,7.60
2022-10-01T09:07:49.241Z,4.00
2022-10-01T09:10:34.419Z,3.85
2022-10-01T09:13:49.360Z,3.70
2022-10-01T09:16:27.640Z,2.78
2022-10-01T09:19:15.287Z,4.03
2022-10-01T09:21:59.076Z,4.00
2022-10-01T09:24:45.005Z,4.80
2022-10-01T09:27:23.958Z,5.43
2022-10-01T09:30:14.251Z,3.95
2022-10-01T09:32:46.998Z,6.90
2022-10-01T09:35:37.535Z,8.18
2022-10-01T09:38:15.583Z,5.68
2022-10-01T09:40:53.430Z,4.93
2022-10-01T09:43:20.071Z,4.18
2022-10-01T09:45:46.542Z,9.35
2022-10-01T09:48:32.143Z,5.80
2022-10-01T09:51:16.430Z,7.82
2022-10-01T09:53:58.274Z,5.43
2022-10-01T09:56:30.965Z,6.72
2022-10-01T09:59:01.970Z,4.75
2022-10-01T10:01:49.945Z,4.30
2022-10-01T10:04:21.090Z,5.15
2022-10-01T10:06:47.902Z,5.57
2022-10-01T10:09:20.276Z,3.60
2022-10-01T10:11:46.830Z,2.63
2022-10-01T10:14:21.060Z,3.05
2022-10-01T10:16:48.509Z,2.67
2022-10-01T10:19:24.131Z,2.90
2022-10-01T10:21:53.473Z,3.13
2022-10-01T10:24:27.228Z,3.10
2022-10-01T10:26:56.842Z,3.25
2022-10-01T10:29:32.352Z,2.70
2022-10-01T10:32:03.685Z,2.67
2022-10-01T10:34:36.987Z,2.63
2022-10-01T10:37:06.334Z,2.90
2022-10-01T10:39:37.660Z,2.60
2022-10-01T10:42:05.983Z,2.40
2022-10-01T10:44:36.782Z,2.40
2022-10-01T10:47:07.769Z,2.60
2022-10-01T10:49:43.720Z,2.45
2022-10-01T10:52:26.768Z,2.10
2022-10-01T10:54:53.146Z,2.10
2022-10-01T10:57:34.452Z,2.33
2022-10-01T11:00:16.989Z,3.03
2022-10-01T11:02:57.819Z,2.60
2022-10-01T11:05:27.093Z,2.72
2022-10-01T11:07:57.124Z,3.28
2022-10-01T11:10:32.469Z,2.47
2022-10-01T11:13:32.855Z,3.38
2022-10-01T11:16:08.293Z,7.32
2022-10-01T11:18:57.886Z,6.78
2022-10-01T11:21:42.573Z,4.65
2022-10-01T11:24:18.131Z,5.60
2022-10-01T11:26:48.884Z,4.68
2022-10-01T11:30:01.135Z,5.80
2022-10-01T11:32:42.789Z,4.18
2022-10-01T11:35:34.084Z,5.15
2022-10-01T11:38:29.873Z,5.43
2022-10-01T11:41:18.324Z,4.80
2022-10-01T11:43:52.127Z,6.28
2022-10-01T11:46:21.500Z,4.60
2022-10-01T11:48:53.186Z,5.53
2022-10-01T11:51:26.995Z,3.43
2022-10-01T11:54:01.730Z,2.58
2022-10-01T11:56:33.642Z,8.98
2022-10-01T11:59:08.749Z,7.47
2022-10-01T12:01:53.765Z,6.05
2022-10-01T12:04:35.783Z,5.50
2022-10-01T12:07:11.243Z,7.40
2022-10-01T12:09:45.483Z,8.02
2022-10-01T12:12:17.564Z,6.50
2022-10-01T12:15:09.359Z,4.90
2022-10-01T12:17:43.279Z,5.80
2022-10-01T12:20:20.318Z,3.80
2022-10-01T12:22:48.495Z,3.70
2022-10-01T12:25:15.059Z,5.22
2022-10-01T12:27:47.496Z,8.38
2022-10-01T12:30:28.285Z,5.60
2022-10-01T12:33:03.619Z,5.97
2022-10-01T12:35:45.231Z,4.18
2022-10-01T12:38:25.255Z,3.15
2022-10-01T12:40:57.484Z,2.30
2022-10-01T12:43:32.277Z,2.30
2022-10-01T12:46:11.006Z,3.13
2022-10-01T12:48:43.238Z,4.10
2022-10-01T12:51:34.514Z,2.88
2022-10-01T12:54:32.197Z,3.55
2022-10-01T12:57:22.826Z,5.97
2022-10-01T13:00:15.274Z,2.00
2022-10-01T13:03:19.281Z,4.32
2022-10-01T13:06:04.476Z,2.50
2022-10-01T13:08:52.448Z,2.03
2022-10-01T13:11:27.337Z,1.77
2022-10-01T13:13:55.577Z,1.90
2022-10-01T13:16:30.608Z,2.30
2022-10-01T13:19:15.271Z,2.30
2022-10-01T13:22:05.912Z,1.90
2022-10-01T13:24:47.801Z,1.97
2022-10-01T13:27:41.058Z,1.88
2022-10-01T13:30:26.019Z,2.05
2022-10-01T13:32:59.359Z,2.05
2022-10-01T13:35:31.615Z,2.08
2022-10-01T13:38:01.005Z,1.90
2022-10-01T13:40:33.193Z,2.00
2022-10-01T13:43:06.891Z,1.92
2022-10-01T13:45:39.081Z,1.90
2022-10-01T13:48:11.609Z,2.13
2022-10-01T13:50:54.141Z,1.90
2022-10-01T13:53:24.798Z,2.40
2022-10-01T13:55:52.829Z,2.30
2022-10-01T13:58:31.751Z,1.95
2022-10-01T14:01:01.256Z,2.13
2022-10-01T14:03:48.574Z,2.27
2022-10-01T14:06:37.105Z,2.60
2022-10-01T14:09:14.989Z,2.10
2022-10-01T14:11:45.438Z,1.88
2022-10-01T14:14:14.088Z,2.20
2022-10-01T14:16:45.713Z,2.27
2022-10-01T14:19:24.127Z,2.42
2022-10-01T14:22:21.464Z,3.80
2022-10-01T14:25:16.497Z,2.47
2022-10-01T14:27:58.959Z,3.10
2022-10-01T14:30:37.834Z,5.40
2022-10-01T14:33:17.122Z,3.28
2022-10-01T14:35:55.714Z,2.67
2022-10-01T14:38:22.424Z,2.40
2022-10-01T14:40:50.668Z,2.40
2022-10-01T14:43:27.097Z,2.60
2022-10-01T14:46:13.013Z,3.10
2022-10-01T14:48:39.676Z,3.45
2022-10-01T14:51:20.011Z,3.45
2022-10-01T14:53:46.486Z,5.22
2022-10-01T14:56:14.116Z,4.80
2022-10-01T14:58:48.046Z,6.38
2022-10-01T15:01:19.966Z,4.15
2022-10-01T15:03:47.046Z,3.40
2022-10-01T15:06:19.217Z,4.90
2022-10-01T15:08:47.821Z,5.90
2022-10-01T15:11:22.104Z,4.93
2022-10-01T15:13:50.984Z,4.20
2022-10-01T15:16:20.526Z,3.90
2022-10-01T15:18:51.393Z,6.43
2022-10-01T15:21:22.860Z,3.50
2022-10-01T15:23:49.845Z,2.50
2022-10-01T15:26:22.245Z,2.33
2022-10-01T15:28:49.201Z,2.00
2022-10-01T15:31:16.588Z,2.50
2022-10-01T15:33:43.251Z,2.30
2022-10-01T15:36:18.710Z,2.30
2022-10-01T15:38:46.603Z,2.50
2022-10-01T15:41:31.462Z,2.38
2022-10-01T15:44:03.236Z,2.25
2022-10-01T15:46:31.747Z,1.93
2022-10-01T15:49:18.049Z,2.33
2022-10-01T15:51:48.634Z,2.70
2022-10-01T15:54:15.069Z,1.90
2022-10-01T15:56:46.528Z,2.33
2022-10-01T15:59:17.868Z,3.03
2022-10-01T16:01:44.499Z,2.58
2022-10-01T16:04:13.664Z,2.30
2022-10-01T16:06:45.378Z,2.70
2022-10-01T16:09:23.635Z,2.72
2022-10-01T16:12:05.249Z,2.50
2022-10-01T16:14:38.719Z,3.13
2022-10-01T16:17:17.275Z,2.25
2022-10-01T16:19:45.553Z,2.70
2022-10-01T16:22:20.723Z,2.47
2022-10-01T16:24:52.329Z,2.50
2022-10-01T16:27:21.140Z,2.88
2022-10-01T16:30:05.389Z,2.13
2022-10-01T16:32:31.985Z,4.55
2022-10-01T16:35:17.310Z,4.53
2022-10-01T16:37:44.898Z,4.80
2022-10-01T16:40:15.937Z,3.63
2022-10-01T16:42:44.275Z,2.70
2022-10-01T16:45:15.802Z,3.10
2022-10-01T16:47:42.570Z,4.82
2022-10-01T16:50:17.825Z,2.20
2022-10-01T16:52:44.490Z,5.15
2022-10-01T16:55:19.721Z,2.70
2022-10-01T16:57:46.117Z,2.75
2022-10-01T17:00:17.313Z,3.95
2022-10-01T17:02:44.171Z,2.20
2022-10-01T17:05:25.484Z,2.10
2022-10-01T17:07:56.098Z,2.38
2022-10-01T17:10:23.715Z,2.40
2022-10-01T17:12:50.193Z,2.00
2022-10-01T17:15:20.962Z,2.10
2022-10-01T17:17:47.353Z,2.13
2022-10-01T17:20:13.879Z,2.78
2022-10-01T17:22:40.690Z,1.90
2022-10-01T17:25:07.521Z,1.98
2022-10-01T17:27:33.912Z,2.27
2022-10-01T17:30:00.410Z,2.83
2022-10-01T17:32:26.895Z,2.05
2022-10-01T17:34:53.322Z,2.15
2022-10-01T17:37:20.371Z,2.17
2022-10-01T17:39:46.798Z,2.17
2022-10-01T17:42:13.199Z,2.53
2022-10-01T17:44:39.597Z,2.92
2022-10-01T17:47:06.066Z,3.00
2022-10-01T17:49:32.445Z,3.85
2022-10-01T17:51:58.839Z,3.70
2022-10-01T17:54:25.247Z,3.70
2022-10-01T17:56:52.949Z,4.50
2022-10-01T17:59:19.378Z,4.68
2022-10-01T18:01:45.840Z,3.70
2022-10-01T18:04:12.340Z,3.93
2022-10-01T18:06:39.997Z,4.43
2022-10-01T18:09:07.051Z,4.10
2022-10-01T18:11:33.563Z,3.78
2022-10-01T18:14:00.083Z,4.28
2022-10-01T18:16:27.139Z,4.30
2022-10-01T18:21:45.112Z,3.30
2022-10-01T18:24:11.595Z,3.20
2022-10-01T18:26:38.417Z,3.42
2022-10-01T18:29:05.232Z,2.77
2022-10-01T18:31:40.981Z,3.00
2022-10-01T18:34:55.204Z,2.83
2022-10-01T18:37:40.544Z,2.65
2022-10-01T18:40:18.929Z,3.05
2022-10-01T18:43:11.642Z,2.90
2022-10-01T18:45:50.122Z,3.17
2022-10-01T18:48:25.437Z,3.08
2022-10-01T18:51:24.895Z,2.70
2022-10-01T18:54:15.605Z,3.00
2022-10-01T18:56:49.138Z,2.80
2022-10-01T18:59:39.819Z,2.83
2022-10-01T19:02:15.688Z,3.17
2022-10-01T19:04:45.168Z,2.97
2022-10-01T19:07:45.433Z,2.97
2022-10-01T19:10:23.987Z,2.60
2022-10-01T19:13:05.304Z,2.90
2022-10-01T19:16:07.881Z,2.55
2022-10-01T19:18:55.759Z,3.20
2022-10-01T19:21:33.092Z,3.20
2022-10-01T19:24:29.727Z,3.30
2022-10-01T19:27:14.362Z,2.90
2022-10-01T19:30:00.720Z,3.00
2022-10-01T19:33:03.601Z,2.97
2022-10-01T19:35:34.256Z,3.03
2022-10-01T19:38:26.207Z,2.70
2022-10-01T19:40:59.214Z,3.10
2022-10-01T19:44:03.957Z,3.38
2022-10-01T19:46:40.779Z,3.33
2022-10-01T19:49:07.357Z,3.90
2022-10-01T19:51:39.307Z,3.90
2022-10-01T19:54:13.689Z,3.63
2022-10-01T19:56:41.275Z,3.50
2022-10-01T19:59:11.560Z,3.95
2022-10-01T20:01:44.639Z,3.83
2022-10-01T20:04:28.296Z,3.60
2022-10-01T20:07:02.778Z,3.80
2022-10-01T20:09:36.330Z,3.92
2022-10-01T20:12:25.921Z,3.92
2022-10-01T20:15:07.632Z,4.20
2022-10-01T20:18:01.712Z,4.17
2022-10-01T20:21:22.393Z,4.63
2022-10-01T20:24:00.417Z,4.80
2022-10-01T20:26:37.561Z,4.20
2022-10-01T20:29:16.595Z,4.47
2022-10-01T20:32:06.408Z,4.17
2022-10-01T20:34:55.687Z,4.40
2022-10-01T20:37:29.053Z,4.65
2022-10-01T20:40:26.127Z,4.25
2022-10-01T20:43:22.067Z,4.75
2022-10-01T20:45:51.307Z,4.40
2022-10-01T20:48:36.094Z,3.90
2022-10-01T20:51:12.283Z,4.78
2022-10-01T20:53:55.154Z,4.70
2022-10-01T20:56:34.846Z,5.65
2022-10-01T20:59:23.487Z,5.10
2022-10-01T21:01:58.552Z,5.00
2022-10-01T21:04:30.697Z,4.75
2022-10-01T21:07:08.658Z,4.80
2022-10-01T21:09:41.374Z,4.88
2022-10-01T21:12:18.804Z,4.60
2022-10-01T21:14:52.755Z,4.40
2022-10-01T21:17:37.420Z,4.25
2022-10-01T21:20:36.207Z,4.28
2022-10-01T21:23:31.270Z,4.68
2022-10-01T21:26:27.804Z,4.20
2022-10-01T21:29:09.476Z,3.70
2022-10-01T21:31:49.357Z,4.30
2022-10-01T21:34:28.055Z,4.30
2022-10-01T21:37:19.048Z,3.85
2022-10-01T21:40:04.027Z,3.57
2022-10-01T21:42:36.864Z,4.40
2022-10-01T21:45:12.981Z,4.20
2022-10-01T21:48:01.308Z,4.93
2022-10-01T21:50:57.134Z,4.22
2022-10-01T21:53:28.938Z,4.10
2022-10-01T21:56:49.663Z,4.63
2022-10-01T21:59:57.015Z,4.10
2022-10-01T22:02:37.607Z,4.15
2022-10-01T22:05:15.036Z,4.72
2022-10-01T22:07:51.467Z,4.60
2022-10-01T22:10:27.722Z,4.60
2022-10-01T22:13:00.094Z,4.95
2022-10-01T22:15:32.573Z,4.43
2022-10-01T22:18:02.093Z,4.25
2022-10-01T22:20:32.201Z,4.47
2022-10-01T22:23:02.115Z,4.53
2022-10-01T22:25:32.006Z,4.72
2022-10-01T22:28:04.829Z,4.30
2022-10-01T22:30:36.368Z,4.78
2022-10-01T22:33:11.544Z,4.50
2022-10-01T22:35:47.330Z,4.30
2022-10-01T22:38:23.691Z,5.07
2022-10-01T22:41:20.563Z,4.80
2022-10-01T22:43:47.310Z,5.03
2022-10-01T22:46:19.526Z,4.77
2022-10-01T22:49:09.303Z,4.78
2022-10-01T22:51:57.515Z,4.43
2022-10-01T22:54:32.827Z,4.75
2022-10-01T22:57:16.463Z,4.55
2022-10-01T23:00:03.119Z,4.20
2022-10-01T23:02:42.310Z,4.47
2022-10-01T23:05:29.970Z,4.70
2022-10-01T23:08:08.421Z,4.47
2022-10-01T23:11:18.068Z,4.72
2022-10-01T23:14:03.770Z,4.70
2022-10-01T23:16:37.646Z,4.63
2022-10-01T23:19:13.803Z,4.45
2022-10-01T23:22:00.794Z,3.70
2022-10-01T23:25:05.531Z,4.75
2022-10-01T23:27:58.126Z,4.03
2022-10-01T23:30:24.963Z,4.43
2022-10-01T23:33:03.669Z,4.72
2022-10-01T23:35:48.694Z,4.15
2022-10-01T23:38:45.195Z,4.15
2022-10-01T23:41:23.675Z,4.40
2022-10-01T23:43:52.370Z,4.20
2022-10-01T23:46:24.824Z,4.03
2022-10-01T23:49:11.658Z,3.65
2022-10-01T23:51:49.787Z,3.85
2022-10-01T23:54:47.285Z,3.70
2022-10-01T23:57:30.804Z,4.03
